sensor_id;sensor_type;location;lat;lon;timestamp;P1;durP1;ratioP1;P2;durP2;ratioP2
80179;SDS011;69505;52.134;5.438;2023-07-20T00:01:51;3.42;;;1.40;;
80179;SDS011;69505;52.134;5.438;2023-07-20T00:04:18;3.72;;;1.40;;
80179;SDS011;69505;52.134;5.438;2023-07-20T00:06:45;2.67;;;1.65;;
80179;SDS011;69505;52.134;5.438;2023-07-20T00:09:12;2.40;;;1.38;;
80179;SDS011;69505;52.134;5.438;2023-07-20T00:11:39;3.45;;;1.35;;
80179;SDS011;69505;52.134;5.438;2023-07-20T00:14:06;2.53;;;1.23;;
80179;SDS011;69505;52.134;5.438;2023-07-20T00:16:32;3.33;;;2.00;;
80179;SDS011;69505;52.134;5.438;2023-07-20T00:18:59;2.83;;;1.25;;
80179;SDS011;69505;52.134;5.438;2023-07-20T00:21:26;3.30;;;1.55;;
80179;SDS011;69505;52.134;5.438;2023-07-20T00:23:52;3.35;;;1.23;;
80179;SDS011;69505;52.134;5.438;2023-07-20T00:26:19;3.10;;;1.35;;
80179;SDS011;69505;52.134;5.438;2023-07-20T00:28:48;3.15;;;1.33;;
80179;SDS011;69505;52.134;5.438;2023-07-20T00:31:16;3.28;;;1.60;;
80179;SDS011;69505;52.134;5.438;2023-07-20T00:33:43;2.50;;;1.45;;
80179;SDS011;69505;52.134;5.438;2023-07-20T00:36:09;2.17;;;1.20;;
80179;SDS011;69505;52.134;5.438;2023-07-20T00:38:36;2.20;;;1.23;;
80179;SDS011;69505;52.134;5.438;2023-07-20T00:41:02;2.85;;;1.13;;
80179;SDS011;69505;52.134;5.438;2023-07-20T00:43:29;2.85;;;1.27;;
80179;SDS011;69505;52.134;5.438;2023-07-20T00:45:56;1.60;;;0.90;;
80179;SDS011;69505;52.134;5.438;2023-07-20T00:48:22;2.40;;;1.02;;
80179;SDS011;69505;52.134;5.438;2023-07-20T00:50:49;1.92;;;0.98;;
80179;SDS011;69505;52.134;5.438;2023-07-20T00:53:17;1.70;;;0.75;;
80179;SDS011;69505;52.134;5.438;2023-07-20T00:55:43;1.92;;;1.05;;
80179;SDS011;69505;52.134;5.438;2023-07-20T00:58:10;1.70;;;0.82;;
80179;SDS011;69505;52.134;5.438;2023-07-20T01:00:37;1.63;;;0.93;;
80179;SDS011;69505;52.134;5.438;2023-07-20T01:03:03;1.70;;;1.42;;
80179;SDS011;69505;52.134;5.438;2023-07-20T01:05:54;2.08;;;0.88;;
80179;SDS011;69505;52.134;5.438;2023-07-20T01:08:28;2.42;;;1.15;;
80179;SDS011;69505;52.134;5.438;2023-07-20T01:13:36;1.50;;;0.80;;
80179;SDS011;69505;52.134;5.438;2023-07-20T01:16:04;2.05;;;0.80;;
80179;SDS011;69505;52.134;5.438;2023-07-20T01:18:30;1.80;;;0.70;;
80179;SDS011;69505;52.134;5.438;2023-07-20T01:21:03;1.48;;;0.65;;
80179;SDS011;69505;52.134;5.438;2023-07-20T01:23:39;1.60;;;0.63;;
80179;SDS011;69505;52.134;5.438;2023-07-20T01:26:13;1.58;;;0.75;;
80179;SDS011;69505;52.134;5.438;2023-07-20T01:32:08;1.40;;;0.63;;
80179;SDS011;69505;52.134;5.438;2023-07-20T01:34:36;1.63;;;0.47;;
80179;SDS011;69505;52.134;5.438;2023-07-20T01:37:04;1.20;;;0.68;;
80179;SDS011;69505;52.134;5.438;2023-07-20T01:39:32;1.40;;;0.73;;
80179;SDS011;69505;52.134;5.438;2023-07-20T01:41:59;1.50;;;0.88;;
80179;SDS011;69505;52.134;5.438;2023-07-20T01:44:27;2.33;;;0.90;;
80179;SDS011;69505;52.134;5.438;2023-07-20T01:46:53;1.55;;;0.90;;
80179;SDS011;69505;52.134;5.438;2023-07-20T01:49:20;1.80;;;0.73;;
80179;SDS011;69505;52.134;5.438;2023-07-20T01:51:47;2.55;;;1.52;;
80179;SDS011;69505;52.134;5.438;2023-07-20T01:54:13;1.88;;;1.00;;
80179;SDS011;69505;52.134;5.438;2023-07-20T01:56:40;1.23;;;0.63;;
80179;SDS011;69505;52.134;5.438;2023-07-20T01:59:06;4.50;;;0.93;;
80179;SDS011;69505;52.134;5.438;2023-07-20T02:01:33;2.10;;;0.95;;
80179;SDS011;69505;52.134;5.438;2023-07-20T02:04:00;1.60;;;0.75;;
80179;SDS011;69505;52.134;5.438;2023-07-20T02:06:26;2.10;;;1.02;;
80179;SDS011;69505;52.134;5.438;2023-07-20T02:08:53;2.65;;;0.90;;
80179;SDS011;69505;52.134;5.438;2023-07-20T02:11:20;1.52;;;1.05;;
80179;SDS011;69505;52.134;5.438;2023-07-20T02:13:46;3.00;;;0.95;;
80179;SDS011;69505;52.134;5.438;2023-07-20T02:16:13;2.85;;;1.20;;
80179;SDS011;69505;52.134;5.438;2023-07-20T02:18:39;2.75;;;1.25;;
80179;SDS011;69505;52.134;5.438;2023-07-20T02:21:06;1.60;;;0.93;;
80179;SDS011;69505;52.134;5.438;2023-07-20T02:23:33;2.05;;;1.35;;
80179;SDS011;69505;52.134;5.438;2023-07-20T02:26:00;3.25;;;1.95;;
80179;SDS011;69505;52.134;5.438;2023-07-20T02:28:27;1.90;;;0.90;;
80179;SDS011;69505;52.134;5.438;2023-07-20T02:30:53;2.45;;;1.40;;
80179;SDS011;69505;52.134;5.438;2023-07-20T02:33:20;1.92;;;1.33;;
80179;SDS011;69505;52.134;5.438;2023-07-20T02:35:47;1.92;;;1.23;;
80179;SDS011;69505;52.134;5.438;2023-07-20T02:38:14;2.50;;;1.33;;
80179;SDS011;69505;52.134;5.438;2023-07-20T02:40:41;2.22;;;1.13;;
80179;SDS011;69505;52.134;5.438;2023-07-20T02:43:07;2.05;;;1.27;;
80179;SDS011;69505;52.134;5.438;2023-07-20T02:45:35;1.80;;;1.02;;
80179;SDS011;69505;52.134;5.438;2023-07-20T02:48:05;1.75;;;0.93;;
80179;SDS011;69505;52.134;5.438;2023-07-20T02:50:34;2.63;;;1.17;;
80179;SDS011;69505;52.134;5.438;2023-07-20T02:53:01;1.98;;;0.90;;
80179;SDS011;69505;52.134;5.438;2023-07-20T02:55:28;2.30;;;1.13;;
80179;SDS011;69505;52.134;5.438;2023-07-20T02:57:55;3.90;;;1.10;;
80179;SDS011;69505;52.134;5.438;2023-07-20T03:00:21;1.67;;;1.02;;
80179;SDS011;69505;52.134;5.438;2023-07-20T03:02:50;1.95;;;1.20;;
80179;SDS011;69505;52.134;5.438;2023-07-20T03:05:22;2.60;;;1.40;;
80179;SDS011;69505;52.134;5.438;2023-07-20T03:07:51;2.20;;;1.23;;
80179;SDS011;69505;52.134;5.438;2023-07-20T03:10:18;1.85;;;1.13;;
80179;SDS011;69505;52.134;5.438;2023-07-20T03:12:44;1.98;;;1.23;;
80179;SDS011;69505;52.134;5.438;2023-07-20T03:15:11;2.17;;;1.40;;
80179;SDS011;69505;52.134;5.438;2023-07-20T03:17:37;2.80;;;1.35;;
80179;SDS011;69505;52.134;5.438;2023-07-20T03:20:04;2.58;;;1.13;;
80179;SDS011;69505;52.134;5.438;2023-07-20T03:22:35;3.00;;;1.10;;
80179;SDS011;69505;52.134;5.438;2023-07-20T03:25:02;3.92;;;1.10;;
80179;SDS011;69505;52.134;5.438;2023-07-20T03:27:28;3.10;;;1.05;;
80179;SDS011;69505;52.134;5.438;2023-07-20T03:29:55;1.90;;;1.17;;
80179;SDS011;69505;52.134;5.438;2023-07-20T03:32:21;3.53;;;1.25;;
80179;SDS011;69505;52.134;5.438;2023-07-20T03:34:48;2.97;;;1.02;;
80179;SDS011;69505;52.134;5.438;2023-07-20T03:37:15;2.08;;;1.02;;
80179;SDS011;69505;52.134;5.438;2023-07-20T03:39:42;2.17;;;1.10;;
80179;SDS011;69505;52.134;5.438;2023-07-20T03:42:09;4.00;;;1.30;;
80179;SDS011;69505;52.134;5.438;2023-07-20T03:44:36;2.13;;;1.20;;
80179;SDS011;69505;52.134;5.438;2023-07-20T03:47:02;2.83;;;0.95;;
80179;SDS011;69505;52.134;5.438;2023-07-20T03:49:31;2.53;;;1.17;;
80179;SDS011;69505;52.134;5.438;2023-07-20T03:51:57;2.78;;;1.02;;
80179;SDS011;69505;52.134;5.438;2023-07-20T03:54:24;1.95;;;1.08;;
80179;SDS011;69505;52.134;5.438;2023-07-20T03:56:50;1.88;;;1.02;;
80179;SDS011;69505;52.134;5.438;2023-07-20T03:59:17;2.45;;;1.27;;
80179;SDS011;69505;52.134;5.438;2023-07-20T04:01:44;3.10;;;1.02;;
80179;SDS011;69505;52.134;5.438;2023-07-20T04:04:11;2.33;;;1.33;;
80179;SDS011;69505;52.134;5.438;2023-07-20T04:06:37;2.40;;;1.30;;
80179;SDS011;69505;52.134;5.438;2023-07-20T04:09:04;3.50;;;0.93;;
80179;SDS011;69505;52.134;5.438;2023-07-20T04:11:33;3.30;;;1.60;;
80179;SDS011;69505;52.134;5.438;2023-07-20T04:14:00;2.10;;;1.67;;
80179;SDS011;69505;52.134;5.438;2023-07-20T04:16:26;3.13;;;1.85;;
80179;SDS011;69505;52.134;5.438;2023-07-20T04:18:56;2.55;;;1.38;;
80179;SDS011;69505;52.134;5.438;2023-07-20T04:21:25;3.17;;;1.38;;
80179;SDS011;69505;52.134;5.438;2023-07-20T04:23:53;1.92;;;1.20;;
80179;SDS011;69505;52.134;5.438;2023-07-20T04:26:20;2.92;;;1.27;;
80179;SDS011;69505;52.134;5.438;2023-07-20T04:28:46;2.40;;;1.50;;
80179;SDS011;69505;52.134;5.438;2023-07-20T04:31:14;2.30;;;1.67;;
80179;SDS011;69505;52.134;5.438;2023-07-20T04:33:41;2.53;;;1.42;;
80179;SDS011;69505;52.134;5.438;2023-07-20T04:36:08;2.10;;;1.50;;
80179;SDS011;69505;52.134;5.438;2023-07-20T04:38:35;2.90;;;1.58;;
80179;SDS011;69505;52.134;5.438;2023-07-20T04:41:01;4.97;;;1.92;;
80179;SDS011;69505;52.134;5.438;2023-07-20T04:43:28;1.98;;;1.48;;
80179;SDS011;69505;52.134;5.438;2023-07-20T04:45:55;3.47;;;1.42;;
80179;SDS011;69505;52.134;5.438;2023-07-20T04:48:22;3.30;;;1.50;;
80179;SDS011;69505;52.134;5.438;2023-07-20T04:50:49;2.50;;;1.60;;
80179;SDS011;69505;52.134;5.438;2023-07-20T04:53:15;3.65;;;2.00;;
80179;SDS011;69505;52.134;5.438;2023-07-20T04:55:47;3.45;;;2.03;;
80179;SDS011;69505;52.134;5.438;2023-07-20T04:58:19;2.67;;;1.88;;
80179;SDS011;69505;52.134;5.438;2023-07-20T05:00:47;3.42;;;1.85;;
80179;SDS011;69505;52.134;5.438;2023-07-20T05:03:15;3.15;;;1.80;;
80179;SDS011;69505;52.134;5.438;2023-07-20T05:05:42;2.72;;;1.83;;
80179;SDS011;69505;52.134;5.438;2023-07-20T05:08:08;3.15;;;1.40;;
80179;SDS011;69505;52.134;5.438;2023-07-20T05:10:35;1.92;;;1.25;;
80179;SDS011;69505;52.134;5.438;2023-07-20T05:13:02;3.20;;;1.90;;
80179;SDS011;69505;52.134;5.438;2023-07-20T05:15:29;3.28;;;1.83;;
80179;SDS011;69505;52.134;5.438;2023-07-20T05:17:55;4.95;;;2.05;;
80179;SDS011;69505;52.134;5.438;2023-07-20T05:20:23;2.53;;;2.03;;
80179;SDS011;69505;52.134;5.438;2023-07-20T05:22:49;2.78;;;1.85;;
80179;SDS011;69505;52.134;5.438;2023-07-20T05:25:16;3.60;;;1.75;;
80179;SDS011;69505;52.134;5.438;2023-07-20T05:27:44;2.53;;;1.67;;
80179;SDS011;69505;52.134;5.438;2023-07-20T05:30:12;3.10;;;1.75;;
80179;SDS011;69505;52.134;5.438;2023-07-20T05:32:39;4.28;;;1.88;;
80179;SDS011;69505;52.134;5.438;2023-07-20T05:35:06;3.10;;;1.77;;
80179;SDS011;69505;52.134;5.438;2023-07-20T05:37:33;4.38;;;1.77;;
80179;SDS011;69505;52.134;5.438;2023-07-20T05:40:00;3.60;;;1.63;;
80179;SDS011;69505;52.134;5.438;2023-07-20T05:42:26;2.35;;;1.50;;
80179;SDS011;69505;52.134;5.438;2023-07-20T05:44:53;3.60;;;1.90;;
80179;SDS011;69505;52.134;5.438;2023-07-20T05:47:21;4.97;;;1.58;;
80179;SDS011;69505;52.134;5.438;2023-07-20T05:49:48;2.70;;;1.83;;
80179;SDS011;69505;52.134;5.438;2023-07-20T05:52:14;3.88;;;1.80;;
80179;SDS011;69505;52.134;5.438;2023-07-20T05:54:41;3.80;;;2.03;;
80179;SDS011;69505;52.134;5.438;2023-07-20T05:57:07;3.00;;;1.83;;
80179;SDS011;69505;52.134;5.438;2023-07-20T05:59:34;3.30;;;1.80;;
80179;SDS011;69505;52.134;5.438;2023-07-20T06:02:01;3.13;;;1.80;;
80179;SDS011;69505;52.134;5.438;2023-07-20T06:04:30;3.15;;;1.92;;
80179;SDS011;69505;52.134;5.438;2023-07-20T06:06:57;2.30;;;1.55;;
80179;SDS011;69505;52.134;5.438;2023-07-20T06:09:23;4.05;;;1.75;;
80179;SDS011;69505;52.134;5.438;2023-07-20T06:11:50;2.63;;;1.20;;
80179;SDS011;69505;52.134;5.438;2023-07-20T06:14:16;3.67;;;1.13;;
80179;SDS011;69505;52.134;5.438;2023-07-20T06:16:44;4.20;;;1.63;;
80179;SDS011;69505;52.134;5.438;2023-07-20T06:19:11;2.15;;;1.55;;
80179;SDS011;69505;52.134;5.438;2023-07-20T06:21:38;2.83;;;1.50;;
80179;SDS011;69505;52.134;5.438;2023-07-20T06:24:05;3.85;;;1.42;;
80179;SDS011;69505;52.134;5.438;2023-07-20T06:26:32;1.77;;;1.00;;
80179;SDS011;69505;52.134;5.438;2023-07-20T06:29:05;2.35;;;1.05;;
80179;SDS011;69505;52.134;5.438;2023-07-20T06:31:32;2.10;;;0.88;;
80179;SDS011;69505;52.134;5.438;2023-07-20T06:34:00;2.40;;;1.50;;
80179;SDS011;69505;52.134;5.438;2023-07-20T06:36:29;2.35;;;1.02;;
80179;SDS011;69505;52.134;5.438;2023-07-20T06:38:56;1.55;;;0.82;;
80179;SDS011;69505;52.134;5.438;2023-07-20T06:41:26;3.17;;;0.65;;
80179;SDS011;69505;52.134;5.438;2023-07-20T06:43:55;5.30;;;0.93;;
80179;SDS011;69505;52.134;5.438;2023-07-20T06:46:25;4.85;;;1.10;;
80179;SDS011;69505;52.134;5.438;2023-07-20T06:48:53;2.15;;;1.02;;
80179;SDS011;69505;52.134;5.438;2023-07-20T06:51:23;1.50;;;0.88;;
80179;SDS011;69505;52.134;5.438;2023-07-20T06:53:50;2.47;;;0.68;;
80179;SDS011;69505;52.134;5.438;2023-07-20T06:56:17;3.17;;;0.95;;
80179;SDS011;69505;52.134;5.438;2023-07-20T06:58:46;1.65;;;0.80;;
80179;SDS011;69505;52.134;5.438;2023-07-20T07:01:13;1.63;;;0.73;;
80179;SDS011;69505;52.134;5.438;2023-07-20T07:03:41;1.35;;;0.60;;
80179;SDS011;69505;52.134;5.438;2023-07-20T07:06:07;2.40;;;1.27;;
80179;SDS011;69505;52.134;5.438;2023-07-20T07:08:34;1.90;;;1.20;;
80179;SDS011;69505;52.134;5.438;2023-07-20T07:11:01;1.40;;;0.52;;
80179;SDS011;69505;52.134;5.438;2023-07-20T07:13:28;2.35;;;0.70;;
80179;SDS011;69505;52.134;5.438;2023-07-20T07:15:55;2.28;;;0.90;;
80179;SDS011;69505;52.134;5.438;2023-07-20T07:18:21;1.83;;;0.60;;
80179;SDS011;69505;52.134;5.438;2023-07-20T07:20:53;2.03;;;0.75;;
80179;SDS011;69505;52.134;5.438;2023-07-20T07:23:20;2.60;;;0.73;;
80179;SDS011;69505;52.134;5.438;2023-07-20T07:25:47;3.80;;;0.80;;
80179;SDS011;69505;52.134;5.438;2023-07-20T07:28:14;4.07;;;0.70;;
80179;SDS011;69505;52.134;5.438;2023-07-20T07:30:41;1.45;;;0.70;;
80179;SDS011;69505;52.134;5.438;2023-07-20T07:33:08;1.98;;;0.95;;
80179;SDS011;69505;52.134;5.438;2023-07-20T07:35:36;2.42;;;0.73;;
80179;SDS011;69505;52.134;5.438;2023-07-20T07:38:03;2.75;;;0.80;;
80179;SDS011;69505;52.134;5.438;2023-07-20T07:40:49;2.85;;;0.80;;
80179;SDS011;69505;52.134;5.438;2023-07-20T07:43:18;3.05;;;0.73;;
80179;SDS011;69505;52.134;5.438;2023-07-20T07:45:45;2.40;;;0.57;;
80179;SDS011;69505;52.134;5.438;2023-07-20T07:48:11;1.58;;;0.43;;
80179;SDS011;69505;52.134;5.438;2023-07-20T07:50:38;2.03;;;0.52;;
80179;SDS011;69505;52.134;5.438;2023-07-20T07:53:07;1.38;;;0.50;;
80179;SDS011;69505;52.134;5.438;2023-07-20T07:55:35;2.40;;;0.50;;
80179;SDS011;69505;52.134;5.438;2023-07-20T07:58:01;1.52;;;0.60;;
80179;SDS011;69505;52.134;5.438;2023-07-20T08:00:28;2.70;;;0.60;;
80179;SDS011;69505;52.134;5.438;2023-07-20T08:02:55;1.83;;;0.50;;
80179;SDS011;69505;52.134;5.438;2023-07-20T08:05:21;4.00;;;0.40;;
80179;SDS011;69505;52.134;5.438;2023-07-20T08:07:48;2.13;;;0.50;;
80179;SDS011;69505;52.134;5.438;2023-07-20T08:10:15;1.27;;;0.22;;
80179;SDS011;69505;52.134;5.438;2023-07-20T08:12:41;1.50;;;0.38;;
80179;SDS011;69505;52.134;5.438;2023-07-20T08:15:10;1.30;;;0.40;;
80179;SDS011;69505;52.134;5.438;2023-07-20T08:17:37;2.47;;;0.52;;
80179;SDS011;69505;52.134;5.438;2023-07-20T08:20:04;2.03;;;0.40;;
80179;SDS011;69505;52.134;5.438;2023-07-20T08:22:32;1.10;;;0.32;;
80179;SDS011;69505;52.134;5.438;2023-07-20T08:24:59;1.40;;;0.30;;
80179;SDS011;69505;52.134;5.438;2023-07-20T08:27:26;0.75;;;0.30;;
80179;SDS011;69505;52.134;5.438;2023-07-20T08:29:52;2.17;;;0.40;;
80179;SDS011;69505;52.134;5.438;2023-07-20T08:32:19;1.65;;;0.30;;
80179;SDS011;69505;52.134;5.438;2023-07-20T08:34:46;1.58;;;0.45;;
80179;SDS011;69505;52.134;5.438;2023-07-20T08:37:12;0.82;;;0.28;;
80179;SDS011;69505;52.134;5.438;2023-07-20T08:39:38;1.02;;;0.20;;
80179;SDS011;69505;52.134;5.438;2023-07-20T08:42:05;0.80;;;0.20;;
80179;SDS011;69505;52.134;5.438;2023-07-20T08:44:33;1.75;;;0.32;;
80179;SDS011;69505;52.134;5.438;2023-07-20T08:47:01;0.80;;;0.30;;
80179;SDS011;69505;52.134;5.438;2023-07-20T08:49:31;0.93;;;0.30;;
80179;SDS011;69505;52.134;5.438;2023-07-20T08:51:59;0.60;;;0.20;;
80179;SDS011;69505;52.134;5.438;2023-07-20T08:54:30;1.70;;;0.20;;
80179;SDS011;69505;52.134;5.438;2023-07-20T08:57:04;1.27;;;0.20;;
80179;SDS011;69505;52.134;5.438;2023-07-20T08:59:31;1.50;;;0.30;;
80179;SDS011;69505;52.134;5.438;2023-07-20T09:01:59;1.75;;;0.40;;
80179;SDS011;69505;52.134;5.438;2023-07-20T09:04:27;0.80;;;0.30;;
80179;SDS011;69505;52.134;5.438;2023-07-20T09:06:53;0.82;;;0.17;;
80179;SDS011;69505;52.134;5.438;2023-07-20T09:09:20;1.50;;;0.30;;
80179;SDS011;69505;52.134;5.438;2023-07-20T09:11:47;0.60;;;0.20;;
80179;SDS011;69505;52.134;5.438;2023-07-20T09:14:15;1.25;;;0.30;;
80179;SDS011;69505;52.134;5.438;2023-07-20T09:19:17;1.63;;;0.20;;
80179;SDS011;69505;52.134;5.438;2023-07-20T09:21:44;0.90;;;0.30;;
80179;SDS011;69505;52.134;5.438;2023-07-20T09:24:12;1.20;;;0.43;;
80179;SDS011;69505;52.134;5.438;2023-07-20T09:26:42;0.88;;;0.22;;
80179;SDS011;69505;52.134;5.438;2023-07-20T09:29:10;1.58;;;0.40;;
80179;SDS011;69505;52.134;5.438;2023-07-20T09:31:37;0.47;;;0.20;;
80179;SDS011;69505;52.134;5.438;2023-07-20T09:34:07;0.88;;;0.35;;
80179;SDS011;69505;52.134;5.438;2023-07-20T09:36:35;0.77;;;0.20;;
80179;SDS011;69505;52.134;5.438;2023-07-20T09:39:05;1.45;;;0.20;;
80179;SDS011;69505;52.134;5.438;2023-07-20T09:41:41;2.05;;;0.30;;
80179;SDS011;69505;52.134;5.438;2023-07-20T09:44:11;0.70;;;0.25;;
80179;SDS011;69505;52.134;5.438;2023-07-20T09:49:17;0.82;;;0.20;;
80179;SDS011;69505;52.134;5.438;2023-07-20T09:51:47;2.38;;;0.22;;
80179;SDS011;69505;52.134;5.438;2023-07-20T09:54:14;1.10;;;0.30;;
80179;SDS011;69505;52.134;5.438;2023-07-20T09:56:42;1.10;;;0.60;;
80179;SDS011;69505;52.134;5.438;2023-07-20T09:59:10;0.52;;;0.20;;
80179;SDS011;69505;52.134;5.438;2023-07-20T10:01:37;1.25;;;0.30;;
80179;SDS011;69505;52.134;5.438;2023-07-20T10:04:09;1.20;;;0.20;;
80179;SDS011;69505;52.134;5.438;2023-07-20T10:06:39;0.63;;;0.20;;
80179;SDS011;69505;52.134;5.438;2023-07-20T10:09:10;3.47;;;0.43;;
80179;SDS011;69505;52.134;5.438;2023-07-20T10:11:39;0.73;;;0.20;;
80179;SDS011;69505;52.134;5.438;2023-07-20T10:14:09;1.77;;;0.30;;
80179;SDS011;69505;52.134;5.438;2023-07-20T10:16:42;1.08;;;0.30;;
80179;SDS011;69505;52.134;5.438;2023-07-20T10:22:18;1.02;;;0.35;;
80179;SDS011;69505;52.134;5.438;2023-07-20T10:24:49;0.65;;;0.20;;
80179;SDS011;69505;52.134;5.438;2023-07-20T10:27:20;0.88;;;0.20;;
80179;SDS011;69505;52.134;5.438;2023-07-20T10:29:47;0.47;;;0.17;;
80179;SDS011;69505;52.134;5.438;2023-07-20T10:32:14;0.73;;;0.30;;
80179;SDS011;69505;52.134;5.438;2023-07-20T10:34:41;1.70;;;0.20;;
80179;SDS011;69505;52.134;5.438;2023-07-20T10:37:08;0.80;;;0.22;;
80179;SDS011;69505;52.134;5.438;2023-07-20T10:39:34;1.63;;;0.73;;
80179;SDS011;69505;52.134;5.438;2023-07-20T10:42:07;0.73;;;0.20;;
80179;SDS011;69505;52.134;5.438;2023-07-20T10:44:41;1.70;;;0.20;;
80179;SDS011;69505;52.134;5.438;2023-07-20T10:47:09;0.50;;;0.20;;
80179;SDS011;69505;52.134;5.438;2023-07-20T10:52:24;1.33;;;0.28;;
80179;SDS011;69505;52.134;5.438;2023-07-20T10:54:50;0.75;;;0.22;;
80179;SDS011;69505;52.134;5.438;2023-07-20T10:57:21;0.30;;;0.20;;
80179;SDS011;69505;52.134;5.438;2023-07-20T10:59:49;0.77;;;0.20;;
80179;SDS011;69505;52.134;5.438;2023-07-20T11:02:17;0.77;;;0.20;;
80179;SDS011;69505;52.134;5.438;2023-07-20T11:04:46;0.60;;;0.20;;
80179;SDS011;69505;52.134;5.438;2023-07-20T11:07:17;0.93;;;0.20;;
80179;SDS011;69505;52.134;5.438;2023-07-20T11:10:13;0.88;;;0.20;;
80179;SDS011;69505;52.134;5.438;2023-07-20T11:18:22;1.17;;;0.28;;
80179;SDS011;69505;52.134;5.438;2023-07-20T11:20:51;0.30;;;0.13;;
80179;SDS011;69505;52.134;5.438;2023-07-20T11:23:19;0.70;;;0.20;;
80179;SDS011;69505;52.134;5.438;2023-07-20T11:25:46;0.70;;;0.30;;
80179;SDS011;69505;52.134;5.438;2023-07-20T11:28:13;0.82;;;0.20;;
80179;SDS011;69505;52.134;5.438;2023-07-20T11:30:39;0.50;;;0.20;;
80179;SDS011;69505;52.134;5.438;2023-07-20T11:33:10;1.95;;;0.28;;
80179;SDS011;69505;52.134;5.438;2023-07-20T11:35:44;0.95;;;0.32;;
80179;SDS011;69505;52.134;5.438;2023-07-20T11:38:12;1.80;;;0.75;;
80179;SDS011;69505;52.134;5.438;2023-07-20T11:40:42;1.40;;;0.95;;
80179;SDS011;69505;52.134;5.438;2023-07-20T11:43:11;1.20;;;0.30;;
80179;SDS011;69505;52.134;5.438;2023-07-20T11:45:41;0.50;;;0.20;;
80179;SDS011;69505;52.134;5.438;2023-07-20T11:48:13;0.65;;;0.20;;
80179;SDS011;69505;52.134;5.438;2023-07-20T11:50:41;1.02;;;0.20;;
80179;SDS011;69505;52.134;5.438;2023-07-20T11:53:07;0.70;;;0.17;;
80179;SDS011;69505;52.134;5.438;2023-07-20T11:55:34;0.70;;;0.13;;
80179;SDS011;69505;52.134;5.438;2023-07-20T11:58:05;0.63;;;0.20;;
80179;SDS011;69505;52.134;5.438;2023-07-20T12:00:39;0.45;;;0.10;;
80179;SDS011;69505;52.134;5.438;2023-07-20T12:03:10;0.65;;;0.20;;
80179;SDS011;69505;52.134;5.438;2023-07-20T12:05:38;0.30;;;0.10;;
80179;SDS011;69505;52.134;5.438;2023-07-20T12:08:25;1.52;;;0.30;;
80179;SDS011;69505;52.134;5.438;2023-07-20T12:10:52;0.57;;;0.20;;
80179;SDS011;69505;52.134;5.438;2023-07-20T12:13:18;0.73;;;0.20;;
80179;SDS011;69505;52.134;5.438;2023-07-20T12:15:45;0.52;;;0.20;;
80179;SDS011;69505;52.134;5.438;2023-07-20T12:18:11;2.55;;;0.43;;
80179;SDS011;69505;52.134;5.438;2023-07-20T12:20:38;0.77;;;0.20;;
80179;SDS011;69505;52.134;5.438;2023-07-20T12:23:09;0.85;;;0.20;;
80179;SDS011;69505;52.134;5.438;2023-07-20T12:25:40;0.75;;;0.20;;
80179;SDS011;69505;52.134;5.438;2023-07-20T12:28:12;0.60;;;0.20;;
80179;SDS011;69505;52.134;5.438;2023-07-20T12:30:41;0.93;;;0.30;;
80179;SDS011;69505;52.134;5.438;2023-07-20T12:33:09;1.15;;;0.20;;
80179;SDS011;69505;52.134;5.438;2023-07-20T12:35:35;1.27;;;0.30;;
80179;SDS011;69505;52.134;5.438;2023-07-20T12:38:02;0.75;;;0.30;;
80179;SDS011;69505;52.134;5.438;2023-07-20T12:40:29;0.80;;;0.30;;
80179;SDS011;69505;52.134;5.438;2023-07-20T12:42:55;1.02;;;0.50;;
80179;SDS011;69505;52.134;5.438;2023-07-20T12:45:23;0.80;;;0.38;;
80179;SDS011;69505;52.134;5.438;2023-07-20T12:47:50;0.90;;;0.30;;
80179;SDS011;69505;52.134;5.438;2023-07-20T12:50:16;1.33;;;0.40;;
80179;SDS011;69505;52.134;5.438;2023-07-20T12:52:43;1.70;;;0.30;;
80179;SDS011;69505;52.134;5.438;2023-07-20T12:55:09;1.10;;;0.40;;
80179;SDS011;69505;52.134;5.438;2023-07-20T12:57:36;1.00;;;0.30;;
80179;SDS011;69505;52.134;5.438;2023-07-20T13:00:09;1.27;;;0.40;;
80179;SDS011;69505;52.134;5.438;2023-07-20T13:02:37;1.08;;;0.30;;
80179;SDS011;69505;52.134;5.438;2023-07-20T13:05:04;2.13;;;0.32;;
80179;SDS011;69505;52.134;5.438;2023-07-20T13:07:32;1.13;;;0.40;;
80179;SDS011;69505;52.134;5.438;2023-07-20T13:10:03;1.50;;;0.30;;
80179;SDS011;69505;52.134;5.438;2023-07-20T13:12:31;0.80;;;0.30;;
80179;SDS011;69505;52.134;5.438;2023-07-20T13:15:00;1.45;;;0.40;;
80179;SDS011;69505;52.134;5.438;2023-07-20T13:17:28;1.95;;;0.40;;
80179;SDS011;69505;52.134;5.438;2023-07-20T13:19:55;4.20;;;0.50;;
80179;SDS011;69505;52.134;5.438;2023-07-20T13:22:22;1.92;;;0.40;;
80179;SDS011;69505;52.134;5.438;2023-07-20T13:24:49;0.90;;;0.35;;
80179;SDS011;69505;52.134;5.438;2023-07-20T13:27:17;1.17;;;0.30;;
80179;SDS011;69505;52.134;5.438;2023-07-20T13:29:45;1.83;;;0.40;;
80179;SDS011;69505;52.134;5.438;2023-07-20T13:32:14;3.17;;;0.50;;
80179;SDS011;69505;52.134;5.438;2023-07-20T13:34:41;0.98;;;0.30;;
80179;SDS011;69505;52.134;5.438;2023-07-20T13:37:10;1.02;;;0.38;;
80179;SDS011;69505;52.134;5.438;2023-07-20T13:39:39;1.17;;;0.30;;
80179;SDS011;69505;52.134;5.438;2023-07-20T13:42:05;1.42;;;0.40;;
80179;SDS011;69505;52.134;5.438;2023-07-20T13:44:33;1.00;;;0.30;;
80179;SDS011;69505;52.134;5.438;2023-07-20T13:47:01;1.55;;;0.30;;
80179;SDS011;69505;52.134;5.438;2023-07-20T13:49:31;1.27;;;0.35;;
80179;SDS011;69505;52.134;5.438;2023-07-20T13:52:02;0.82;;;0.30;;
80179;SDS011;69505;52.134;5.438;2023-07-20T13:54:31;1.13;;;0.38;;
80179;SDS011;69505;52.134;5.438;2023-07-20T13:56:58;1.17;;;0.32;;
80179;SDS011;69505;52.134;5.438;2023-07-20T13:59:24;0.98;;;0.35;;
80179;SDS011;69505;52.134;5.438;2023-07-20T14:01:52;0.70;;;0.20;;
80179;SDS011;69505;52.134;5.438;2023-07-20T14:07:05;1.25;;;0.40;;
80179;SDS011;69505;52.134;5.438;2023-07-20T14:09:32;1.25;;;0.40;;
80179;SDS011;69505;52.134;5.438;2023-07-20T14:11:59;1.50;;;0.52;;
80179;SDS011;69505;52.134;5.438;2023-07-20T14:14:28;1.88;;;0.40;;
80179;SDS011;69505;52.134;5.438;2023-07-20T14:16:55;1.48;;;0.38;;
80179;SDS011;69505;52.134;5.438;2023-07-20T14:19:22;2.88;;;0.40;;
80179;SDS011;69505;52.134;5.438;2023-07-20T14:21:49;1.58;;;0.52;;
80179;SDS011;69505;52.134;5.438;2023-07-20T14:24:16;1.50;;;0.40;;
80179;SDS011;69505;52.134;5.438;2023-07-20T14:26:44;1.63;;;0.35;;
80179;SDS011;69505;52.134;5.438;2023-07-20T14:29:12;1.13;;;0.30;;
80179;SDS011;69505;52.134;5.438;2023-07-20T14:31:39;1.27;;;0.45;;
80179;SDS011;69505;52.134;5.438;2023-07-20T14:34:05;1.15;;;0.35;;
80179;SDS011;69505;52.134;5.438;2023-07-20T14:36:32;1.70;;;0.40;;
80179;SDS011;69505;52.134;5.438;2023-07-20T14:39:00;2.08;;;0.30;;
80179;SDS011;69505;52.134;5.438;2023-07-20T14:41:26;1.60;;;0.50;;
80179;SDS011;69505;52.134;5.438;2023-07-20T14:43:53;4.20;;;0.30;;
80179;SDS011;69505;52.134;5.438;2023-07-20T14:46:20;2.45;;;0.38;;
80179;SDS011;69505;52.134;5.438;2023-07-20T14:48:47;1.63;;;0.40;;
80179;SDS011;69505;52.134;5.438;2023-07-20T14:51:14;2.30;;;0.43;;
80179;SDS011;69505;52.134;5.438;2023-07-20T14:53:40;0.90;;;0.32;;
80179;SDS011;69505;52.134;5.438;2023-07-20T14:56:07;1.55;;;0.40;;
80179;SDS011;69505;52.134;5.438;2023-07-20T14:58:34;1.67;;;0.50;;
80179;SDS011;69505;52.134;5.438;2023-07-20T15:01:01;2.17;;;0.32;;
80179;SDS011;69505;52.134;5.438;2023-07-20T15:03:30;2.20;;;0.65;;
80179;SDS011;69505;52.134;5.438;2023-07-20T15:05:57;1.10;;;0.50;;
80179;SDS011;69505;52.134;5.438;2023-07-20T15:08:24;1.73;;;0.40;;
80179;SDS011;69505;52.134;5.438;2023-07-20T15:10:50;2.05;;;0.30;;
80179;SDS011;69505;52.134;5.438;2023-07-20T15:13:17;1.25;;;0.50;;
80179;SDS011;69505;52.134;5.438;2023-07-20T15:15:44;1.50;;;0.90;;
80179;SDS011;69505;52.134;5.438;2023-07-20T15:18:10;2.30;;;0.40;;